Time;durP1;ratioP1;P1;durP2;ratioP2;P2;SDS_P1;SDS_P2;PMS_P1;PMS_P2;Temp;Humidity;BMP_temperature;BMP_pressure;BME280_temperature;BME280_humidity;BME280_pressure;Samples;Min_cycle;Max_cycle;Signal;HPM_P1;HPM_P2
2021/01/21 00:00:28;;;;;;;45.10;5.45;;;24.50;58.40;;;;;;5063828;28;20036;-48
2021/01/21 00:02:55;;;;;;;40.58;5.55;;;24.50;59.90;;;;;;5065872;28;20124;-48
2021/01/21 00:05:23;;;;;;;29.30;5.00;;;24.50;59.90;;;;;;5071440;28;20023;-50
2021/01/21 00:07:50;;;;;;;73.93;10.50;;;24.50;58.30;;;;;;5071498;28;20020;-52
2021/01/21 00:10:17;;;;;;;100.57;11.35;;;24.50;60.40;;;;;;5068227;28;20033;-44
2021/01/21 00:12:45;;;;;;;110.30;12.52;;;24.50;60.90;;;;;;5069586;28;20033;-43
2021/01/21 00:15:12;;;;;;;109.43;12.77;;;24.60;61.00;;;;;;5071920;28;20033;-44
2021/01/21 00:17:39;;;;;;;75.75;13.15;;;24.60;61.20;;;;;;5071725;28;20029;-45
2021/01/21 00:20:07;;;;;;;80.35;11.20;;;24.60;60.80;;;;;;5068884;28;20025;-48
2021/01/21 00:22:35;;;;;;;68.07;9.00;;;24.70;59.40;;;;;;5068725;28;20414;-47
2021/01/21 00:25:02;;;;;;;33.53;5.85;;;24.70;57.60;;;;;;5071718;28;20025;-45
2021/01/21 00:27:29;;;;;;;92.43;11.77;;;24.90;57.30;;;;;;5071716;28;20033;-49
2021/01/21 00:29:57;;;;;;;126.95;15.38;;;24.90;58.60;;;;;;5069956;28;20105;-42
2021/01/21 00:32:24;;;;;;;95.32;13.68;;;25.00;59.80;;;;;;5068627;28;20094;-51
2021/01/21 00:34:52;;;;;;;79.72;12.15;;;25.10;59.00;;;;;;5071787;28;20036;-47
2021/01/21 00:37:19;;;;;;;73.35;12.75;;;25.10;58.40;;;;;;5071776;28;20042;-45
2021/01/21 00:39:46;;;;;;;99.90;15.07;;;25.10;58.40;;;;;;5071520;28;20066;-48
2021/01/21 00:42:14;;;;;;;100.85;15.45;;;25.20;59.20;;;;;;5066715;28;20093;-50
2021/01/21 00:44:41;;;;;;;76.03;10.15;;;25.20;59.20;;;;;;5071071;28;20127;-45
2021/01/21 00:47:08;;;;;;;83.57;12.40;;;25.30;58.50;;;;;;5070078;28;20036;-48
2021/01/21 00:49:36;;;;;;;68.80;9.88;;;25.20;58.80;;;;;;5071305;28;20035;-43
2021/01/21 00:52:03;;;;;;;65.20;9.32;;;25.30;57.80;;;;;;5067087;28;20025;-45
2021/01/21 00:54:30;;;;;;;132.52;16.30;;;25.40;57.00;;;;;;5071527;28;20096;-47
2021/01/21 00:56:58;;;;;;;78.35;10.48;;;25.40;58.40;;;;;;5069963;28;20036;-47
2021/01/21 00:59:25;;;;;;;109.25;14.80;;;25.40;57.30;;;;;;5071020;28;20050;-48
2021/01/21 01:01:52;;;;;;;79.53;11.50;;;25.50;57.00;;;;;;5066737;28;20027;-45
2021/01/21 01:04:20;;;;;;;58.95;8.95;;;25.50;57.10;;;;;;5069817;28;20115;-51
2021/01/21 01:06:47;;;;;;;88.65;14.07;;;25.50;56.00;;;;;;5070446;28;20130;-48
2021/01/21 01:09:15;;;;;;;160.40;18.08;;;25.50;55.80;;;;;;5070930;28;20509;-43
2021/01/21 01:11:42;;;;;;;140.38;17.13;;;25.60;57.70;;;;;;5066503;28;20069;-44
2021/01/21 01:14:09;;;;;;;48.72;7.40;;;25.60;57.60;;;;;;5070855;28;20020;-49
2021/01/21 01:16:37;;;;;;;102.82;15.27;;;25.60;54.60;;;;;;5069753;28;20024;-50
2021/01/21 01:19:04;;;;;;;153.75;17.95;;;25.70;56.80;;;;;;5070159;28;20029;-46
2021/01/21 01:21:31;;;;;;;184.35;20.95;;;25.70;57.60;;;;;;5065406;28;20131;-54
2021/01/21 01:23:59;;;;;;;103.20;15.02;;;25.80;56.90;;;;;;5069575;28;20415;-48
2021/01/21 01:26:26;;;;;;;57.25;8.45;;;25.90;56.70;;;;;;5070033;28;20120;-43
2021/01/21 01:28:53;;;;;;;55.92;7.43;;;26.00;55.50;;;;;;5069877;28;20141;-46
2021/01/21 01:31:21;;;;;;;60.50;7.78;;;26.00;53.20;;;;;;5065958;28;20032;-44
2021/01/21 01:33:48;;;;;;;18.52;5.35;;;26.10;54.50;;;;;;5070005;28;20028;-42
2021/01/21 01:36:16;;;;;;;16.90;4.10;;;26.20;53.00;;;;;;5070731;28;20028;-48
2021/01/21 01:38:43;;;;;;;24.95;4.32;;;26.20;52.00;;;;;;5068882;28;20024;-48
2021/01/21 01:41:11;;;;;;;25.02;5.13;;;26.20;52.00;;;;;;5064638;28;20429;-51
2021/01/21 01:43:38;;;;;;;31.30;5.20;;;26.20;52.80;;;;;;5070483;28;20059;-45
2021/01/21 01:46:07;;;;;;;24.48;4.32;;;26.30;51.80;;;;;;5069081;28;20052;-48
2021/01/21 01:48:34;;;;;;;26.88;4.65;;;26.20;52.20;;;;;;5069831;28;20032;-46
2021/01/21 01:51:03;;;;;;;37.47;5.80;;;26.20;52.50;;;;;;5064302;28;20060;-46
2021/01/21 01:53:34;;;;;;;54.55;7.72;;;26.30;52.60;;;;;;5069659;28;20142;-45
2021/01/21 01:56:01;;;;;;;39.10;6.07;;;26.40;52.30;;;;;;5069638;28;20049;-46
2021/01/21 01:58:31;;;;;;;73.55;10.32;;;26.50;52.50;;;;;;5069594;28;20063;-43
2021/01/21 02:01:00;;;;;;;72.95;9.40;;;26.50;52.80;;;;;;5065147;28;20497;-47
2021/01/21 02:03:27;;;;;;;135.38;15.73;;;26.60;52.70;;;;;;5068854;28;20037;-46
2021/01/21 02:05:55;;;;;;;60.05;9.43;;;26.60;53.40;;;;;;5069684;28;20024;-45
2021/01/21 02:08:24;;;;;;;69.00;10.82;;;26.70;52.60;;;;;;5069071;28;20020;-46
2021/01/21 02:10:56;;;;;;;66.53;11.18;;;26.70;53.20;;;;;;5064816;28;20024;-48
2021/01/21 02:13:41;;;;;;;;;;;26.80;52.70;;;;;;5069555;28;20021;-50
2021/01/21 02:16:22;;;;;;;61.95;9.40;;;26.90;52.50;;;;;;5068110;28;19916;-49
2021/01/21 02:19:08;;;;;;;172.88;19.95;;;26.90;52.40;;;;;;5065547;28;20025;-51
2021/01/21 02:22:22;;;;;;;67.32;11.63;;;26.90;53.30;;;;;;5063980;28;20518;-47
2021/01/21 02:25:05;;;;;;;144.13;17.55;;;27.00;53.00;;;;;;5047266;28;20056;-49
2021/01/21 02:28:10;;;;;;;206.90;25.13;;;27.00;53.60;;;;;;5066480;28;20571;-48
2021/01/21 02:31:01;;;;;;;114.95;17.65;;;26.90;54.70;;;;;;5055815;28;20036;-50
2021/01/21 02:33:43;;;;;;;80.60;11.70;;;27.00;55.40;;;;;;5066158;28;20024;-44
2021/01/21 02:36:19;;;;;;;91.35;15.23;;;27.00;54.60;;;;;;5069149;28;20024;-47
2021/01/21 02:38:48;;;;;;;116.30;15.80;;;27.10;55.20;;;;;;5068489;28;20420;-49
2021/01/21 02:41:16;;;;;;;76.57;9.15;;;27.10;55.40;;;;;;5060508;28;20063;-46
2021/01/21 02:43:43;;;;;;;85.20;12.48;;;27.10;54.10;;;;;;5065509;28;20028;-45
2021/01/21 02:46:10;;;;;;;62.50;11.70;;;27.10;55.20;;;;;;5068742;28;20066;-49
2021/01/21 02:48:38;;;;;;;70.35;10.70;;;27.00;56.80;;;;;;5068296;28;20447;-49
2021/01/21 02:51:33;;;;;;;56.70;9.93;;;27.00;57.20;;;;;;5064303;28;20099;-44
2021/01/21 02:54:30;;;;;;;63.83;10.13;;;26.90;55.70;;;;;;5067353;28;20037;-57
2021/01/21 02:57:08;;;;;;;70.25;9.27;;;26.70;58.70;;;;;;5066710;28;20021;-55
2021/01/21 02:59:40;;;;;;;51.88;7.70;;;26.60;58.10;;;;;;5068609;28;20559;-53
2021/01/21 03:02:09;;;;;;;42.90;6.45;;;26.60;60.10;;;;;;5064449;28;20048;-56
2021/01/21 03:04:40;;;;;;;56.25;7.05;;;26.60;58.00;;;;;;5067931;28;20507;-50
2021/01/21 03:07:12;;;;;;;34.35;6.90;;;26.70;59.20;;;;;;5068517;28;20048;-56
2021/01/21 03:09:44;;;;;;;40.35;7.53;;;26.70;58.50;;;;;;5068735;28;20321;-58
2021/01/21 03:12:22;;;;;;;35.33;7.28;;;26.80;59.50;;;;;;5063987;28;20028;-56
2021/01/21 03:14:54;;;;;;;33.20;7.40;;;26.80;58.50;;;;;;5068545;28;20368;-57
2021/01/21 03:17:26;;;;;;;33.38;6.53;;;26.80;59.70;;;;;;5068272;28;20542;-52
2021/01/21 03:19:54;;;;;;;30.08;6.35;;;26.80;59.40;;;;;;5068697;28;20436;-60
2021/01/21 03:22:21;;;;;;;38.70;6.75;;;26.90;58.60;;;;;;5065109;28;20521;-57
2021/01/21 03:24:49;;;;;;;26.98;6.32;;;26.90;58.70;;;;;;5068801;28;20504;-52
2021/01/21 03:27:16;;;;;;;24.30;5.97;;;26.90;56.90;;;;;;5068075;28;20028;-59
2021/01/21 03:29:44;;;;;;;22.55;4.82;;;27.00;58.00;;;;;;5067286;28;20368;-59
2021/01/21 03:32:11;;;;;;;37.42;7.72;;;27.00;56.70;;;;;;5064779;28;20025;-57
2021/01/21 03:34:38;;;;;;;29.88;5.40;;;27.00;59.10;;;;;;5068013;28;20127;-56
2021/01/21 03:37:06;;;;;;;24.35;6.85;;;26.90;57.60;;;;;;5067197;28;20021;-56
2021/01/21 03:39:33;;;;;;;38.58;5.97;;;27.00;58.90;;;;;;5071698;28;20376;-56
2021/01/21 03:42:00;;;;;;;29.73;6.97;;;27.00;57.80;;;;;;5068582;28;20043;-55
2021/01/21 03:44:28;;;;;;;26.05;6.20;;;27.10;57.30;;;;;;5072269;28;20146;-58
2021/01/21 03:46:56;;;;;;;35.22;5.82;;;27.00;57.60;;;;;;5072395;28;20491;-53
2021/01/21 03:49:24;;;;;;;25.25;5.32;;;27.00;59.20;;;;;;5072386;28;20040;-56
2021/01/21 03:51:51;;;;;;;25.88;5.32;;;27.00;59.20;;;;;;5068485;28;20029;-57
2021/01/21 03:54:18;;;;;;;27.80;6.50;;;26.90;59.60;;;;;;5067509;28;20446;-56
2021/01/21 03:56:46;;;;;;;22.50;5.22;;;26.90;59.70;;;;;;5072109;28;20048;-60
2021/01/21 03:59:13;;;;;;;23.58;6.43;;;26.70;60.30;;;;;;5070906;28;20056;-55
2021/01/21 04:01:40;;;;;;;29.00;6.25;;;26.70;59.60;;;;;;5069528;28;20127;-53
2021/01/21 04:04:08;;;;;;;23.90;5.85;;;26.80;60.20;;;;;;5070142;28;20106;-62
2021/01/21 04:06:35;;;;;;;27.17;5.30;;;26.70;60.40;;;;;;5072528;28;20082;-62
2021/01/21 04:09:02;;;;;;;26.17;5.15;;;26.70;60.40;;;;;;5070677;28;20107;-58
2021/01/21 04:11:30;;;;;;;18.77;4.95;;;26.70;59.50;;;;;;5069419;28;20042;-60
2021/01/21 04:13:57;;;;;;;17.42;4.55;;;26.70;60.20;;;;;;5071191;28;20081;-55
2021/01/21 04:16:25;;;;;;;27.55;5.43;;;26.60;59.00;;;;;;5074613;28;20432;-62
2021/01/21 04:18:52;;;;;;;19.25;4.97;;;26.80;59.00;;;;;;5074719;28;20403;-58
2021/01/21 04:21:19;;;;;;;18.27;4.22;;;26.80;59.50;;;;;;5074389;28;20438;-60
2021/01/21 04:23:47;;;;;;;18.98;4.65;;;26.80;59.50;;;;;;5074654;28;20024;-61
2021/01/21 04:26:14;;;;;;;22.27;4.88;;;26.80;60.00;;;;;;5074922;28;20042;-59
2021/01/21 04:28:42;;;;;;;15.25;4.25;;;26.70;59.30;;;;;;5074500;28;20029;-61
2021/01/21 04:31:09;;;;;;;12.90;4.85;;;26.80;59.40;;;;;;5074558;28;20048;-58
2021/01/21 04:33:36;;;;;;;18.33;4.43;;;26.70;59.50;;;;;;5065879;28;20025;-55
2021/01/21 04:36:04;;;;;;;21.40;5.25;;;26.70;58.00;;;;;;5069171;28;20530;-59
2021/01/21 04:38:31;;;;;;;7.63;2.95;;;26.60;59.70;;;;;;5070686;28;20036;-62
2021/01/21 04:40:58;;;;;;;18.05;8.43;;;26.70;54.00;;;;;;5069734;28;20025;-52
2021/01/21 04:43:26;;;;;;;14.65;7.80;;;26.70;58.20;;;;;;5070212;28;20029;-52
2021/01/21 04:45:53;;;;;;;32.33;15.18;;;26.00;56.40;;;;;;5071048;28;20028;-57
2021/01/21 04:48:22;;;;;;;21.08;9.63;;;26.10;56.60;;;;;;5069474;28;20025;-56
2021/01/21 04:50:50;;;;;;;16.67;7.20;;;26.10;56.40;;;;;;5067552;28;20021;-54
2021/01/21 04:53:20;;;;;;;27.35;13.27;;;25.90;57.80;;;;;;5070699;28;20032;-62
2021/01/21 04:55:55;;;;;;;21.80;10.05;;;26.10;58.90;;;;;;5070882;28;20028;-56
2021/01/21 04:58:55;;;;;;;15.80;6.82;;;26.30;56.10;;;;;;5070189;28;20036;-56
2021/01/21 05:01:22;;;;;;;16.23;7.30;;;26.40;55.30;;;;;;5057426;28;20451;-57
2021/01/21 05:03:50;;;;;;;12.95;4.60;;;26.40;55.40;;;;;;5070700;28;20029;-54
2021/01/21 05:06:18;;;;;;;15.70;6.00;;;26.40;54.00;;;;;;5070627;28;20024;-60
2021/01/21 05:08:45;;;;;;;9.70;4.53;;;26.40;54.40;;;;;;5070248;28;20024;-56
2021/01/21 05:11:13;;;;;;;12.35;4.60;;;26.50;53.60;;;;;;5065776;28;20503;-58
2021/01/21 05:13:40;;;;;;;14.23;3.85;;;26.50;54.60;;;;;;5070287;28;20032;-63
2021/01/21 05:16:07;;;;;;;15.00;4.05;;;26.40;53.70;;;;;;5069490;28;20024;-56
2021/01/21 05:18:38;;;;;;;17.45;4.78;;;26.30;54.10;;;;;;5069844;28;20099;-56
2021/01/21 05:21:08;;;;;;;8.68;3.58;;;26.30;54.30;;;;;;5066169;28;20143;-62
2021/01/21 05:23:35;;;;;;;9.95;3.15;;;26.30;54.60;;;;;;5070368;28;20021;-63
2021/01/21 05:26:03;;;;;;;14.40;3.60;;;26.30;53.90;;;;;;5069970;28;20032;-59
2021/01/21 05:28:31;;;;;;;11.10;4.10;;;26.30;54.80;;;;;;5068200;28;20036;-57
2021/01/21 05:31:03;;;;;;;15.23;4.20;;;26.30;54.20;;;;;;5065908;28;20069;-55
2021/01/21 05:33:31;;;;;;;14.23;4.32;;;26.30;55.40;;;;;;5070099;28;20029;-58
2021/01/21 05:35:58;;;;;;;15.07;6.72;;;26.30;53.90;;;;;;5069691;28;20089;-53
2021/01/21 05:38:26;;;;;;;20.33;6.95;;;26.30;55.00;;;;;;5067685;28;20024;-60
2021/01/21 05:40:54;;;;;;;14.07;5.78;;;26.30;55.40;;;;;;5065526;28;20044;-57
2021/01/21 05:43:23;;;;;;;17.42;6.65;;;26.20;55.30;;;;;;5069214;28;20040;-53
2021/01/21 05:45:52;;;;;;;15.85;5.05;;;26.20;55.10;;;;;;5069905;28;20028;-55
2021/01/21 05:48:19;;;;;;;24.52;5.45;;;26.30;55.20;;;;;;5069745;28;20124;-55
2021/01/21 05:50:48;;;;;;;14.93;3.60;;;26.30;56.70;;;;;;5065667;28;20039;-54
2021/01/21 05:53:17;;;;;;;18.92;4.25;;;26.20;56.10;;;;;;5067396;28;20040;-59
2021/01/21 05:55:44;;;;;;;12.73;3.50;;;26.10;55.70;;;;;;5070237;28;20383;-62
2021/01/21 05:58:12;;;;;;;13.38;3.35;;;26.10;56.30;;;;;;5068649;28;20048;-59
2021/01/21 06:00:42;;;;;;;17.48;3.50;;;26.10;56.30;;;;;;5071798;28;20162;-56
2021/01/21 06:03:11;;;;;;;12.77;3.35;;;26.10;57.10;;;;;;5072320;28;20123;-54
2021/01/21 06:05:40;;;;;;;12.77;3.10;;;26.10;57.10;;;;;;5071154;28;20538;-56
2021/01/21 06:08:07;;;;;;;12.45;2.85;;;26.10;57.10;;;;;;5073009;28;20036;-62
2021/01/21 06:10:34;;;;;;;11.65;3.28;;;26.10;57.80;;;;;;5072985;28;20031;-54
2021/01/21 06:13:06;;;;;;;11.75;3.45;;;26.10;57.30;;;;;;5072681;28;20032;-62
2021/01/21 06:15:37;;;;;;;11.55;3.90;;;26.10;57.80;;;;;;5072796;28;20017;-55
2021/01/21 06:18:04;;;;;;;9.80;2.83;;;26.10;57.10;;;;;;5072117;28;20493;-55
2021/01/21 06:20:32;;;;;;;10.65;3.10;;;26.10;57.50;;;;;;5071676;28;20017;-55
2021/01/21 06:23:04;;;;;;;5.78;2.13;;;26.10;57.40;;;;;;5072800;28;20060;-60
2021/01/21 06:25:32;;;;;;;9.20;2.50;;;26.10;57.20;;;;;;5072025;28;20549;-63
2021/01/21 06:28:01;;;;;;;10.50;2.90;;;26.10;57.00;;;;;;5071539;28;20033;-62
2021/01/21 06:30:31;;;;;;;16.52;3.42;;;26.10;57.40;;;;;;5071543;28;20023;-56
2021/01/21 06:33:07;;;;;;;10.15;2.65;;;26.00;57.70;;;;;;5070699;28;20070;-55
2021/01/21 06:35:39;;;;;;;14.90;2.85;;;26.10;57.60;;;;;;5072186;28;20032;-56
2021/01/21 06:38:16;;;;;;;16.80;3.20;;;26.00;57.60;;;;;;5071825;28;20049;-55
2021/01/21 06:40:51;;;;;;;12.85;3.08;;;25.90;57.20;;;;;;5071901;28;20025;-53
2021/01/21 06:43:39;;;;;;;13.13;3.20;;;26.00;57.70;;;;;;5072069;28;20039;-55
2021/01/21 06:46:13;;;;;;;14.57;3.75;;;25.90;57.50;;;;;;5071736;28;20444;-49
2021/01/21 06:48:41;;;;;;;16.20;3.08;;;25.90;58.20;;;;;;5070786;28;20024;-53
2021/01/21 06:51:11;;;;;;;10.32;2.30;;;26.00;59.10;;;;;;5071447;28;20024;-54
2021/01/21 06:53:44;;;;;;;10.38;2.85;;;25.90;59.00;;;;;;5072082;28;20174;-55
2021/01/21 06:56:11;;;;;;;8.70;2.33;;;26.00;57.60;;;;;;5072238;28;20024;-59
2021/01/21 06:58:57;;;;;;;12.90;3.00;;;25.80;57.80;;;;;;5070335;28;20119;-57
2021/01/21 07:01:42;;;;;;;9.85;3.30;;;25.80;58.30;;;;;;5071620;28;20024;-59
2021/01/21 07:04:18;;;;;;;11.02;2.35;;;25.70;57.70;;;;;;5071201;28;20032;-52
2021/01/21 07:07:03;;;;;;;13.07;3.00;;;25.70;57.90;;;;;;5071841;28;20050;-52
2021/01/21 07:09:33;;;;;;;9.50;2.50;;;25.60;57.70;;;;;;5071807;28;20036;-56
2021/01/21 07:12:02;;;;;;;12.30;2.95;;;25.70;59.70;;;;;;5071106;28;20032;-55
2021/01/21 07:14:35;;;;;;;16.67;3.28;;;25.70;59.30;;;;;;5070770;28;20048;-63
2021/01/21 07:17:06;;;;;;;17.95;2.97;;;25.70;59.80;;;;;;5071341;28;20020;-68
2021/01/21 07:19:46;;;;;;;13.85;2.70;;;25.70;59.50;;;;;;5071544;28;20099;-63
2021/01/21 07:22:32;;;;;;;14.02;3.30;;;25.70;58.90;;;;;;5071110;28;20088;-62
2021/01/21 07:25:02;;;;;;;10.05;3.15;;;25.70;60.90;;;;;;5071306;28;20028;-64
2021/01/21 07:27:34;;;;;;;15.63;3.00;;;25.70;60.60;;;;;;5071685;28;20032;-63
2021/01/21 07:30:25;;;;;;;14.02;2.78;;;25.70;60.80;;;;;;5071534;28;20052;-56
2021/01/21 07:33:21;;;;;;;14.18;3.08;;;25.50;60.00;;;;;;5071115;28;20466;-57
2021/01/21 07:35:50;;;;;;;14.73;3.10;;;25.40;60.40;;;;;;5069851;28;20074;-57
2021/01/21 07:38:41;;;;;;;14.27;3.08;;;25.30;59.50;;;;;;5071560;28;20414;-58
2021/01/21 07:41:08;;;;;;;20.53;3.67;;;25.10;58.90;;;;;;5070894;28;20020;-60
2021/01/21 07:43:55;;;;;;;22.75;3.22;;;24.90;60.00;;;;;;5071188;28;20033;-54
2021/01/21 07:46:26;;;;;;;11.50;2.50;;;24.90;60.60;;;;;;5071692;28;20032;-62
2021/01/21 07:49:21;;;;;;;14.10;3.83;;;24.90;62.00;;;;;;5071568;28;20585;-60
2021/01/21 07:52:04;;;;;;;23.40;3.70;;;24.90;61.40;;;;;;5071091;28;20615;-57
2021/01/21 07:54:48;;;;;;;13.57;3.33;;;25.00;63.40;;;;;;5071282;28;20060;-60
2021/01/21 07:57:24;;;;;;;23.85;3.63;;;24.90;62.30;;;;;;5071024;28;20025;-54
2021/01/21 08:00:03;;;;;;;26.83;6.25;;;24.90;63.70;;;;;;5071684;28;20414;-59
2021/01/21 08:02:51;;;;;;;27.23;4.63;;;24.90;66.70;;;;;;5071011;28;20433;-58
2021/01/21 08:05:20;;;;;;;24.30;5.20;;;25.00;67.40;;;;;;5071339;28;20077;-58
2021/01/21 08:07:57;;;;;;;23.17;4.05;;;25.00;63.90;;;;;;5071361;28;20021;-56
2021/01/21 08:10:29;;;;;;;25.27;4.10;;;24.80;63.10;;;;;;5068075;28;20013;-54
2021/01/21 08:13:00;;;;;;;20.23;4.85;;;24.70;67.50;;;;;;5067148;28;20111;-52
2021/01/21 08:15:29;;;;;;;16.40;5.03;;;24.80;65.60;;;;;;5069862;28;20520;-51
2021/01/21 08:17:58;;;;;;;17.77;4.15;;;24.80;65.90;;;;;;5070516;28;20078;-60
2021/01/21 08:20:30;;;;;;;17.02;2.95;;;24.70;66.30;;;;;;5070944;28;20490;-58
2021/01/21 08:23:05;;;;;;;17.75;3.83;;;24.50;65.60;;;;;;5070652;28;20111;-60
2021/01/21 08:25:42;;;;;;;13.38;3.22;;;24.50;68.40;;;;;;5064412;28;20051;-61
2021/01/21 08:28:11;;;;;;;24.33;4.95;;;24.50;68.50;;;;;;5068162;28;20498;-56
2021/01/21 08:30:39;;;;;;;20.85;4.15;;;24.60;67.10;;;;;;5070304;28;20029;-60
2021/01/21 08:33:07;;;;;;;18.25;3.67;;;24.40;67.50;;;;;;5070635;28;20032;-53
2021/01/21 08:35:38;;;;;;;26.08;4.28;;;24.30;67.70;;;;;;5071385;28;20056;-60
2021/01/21 08:38:11;;;;;;;15.48;3.25;;;24.30;68.40;;;;;;5072748;28;20133;-60
2021/01/21 08:40:39;;;;;;;10.30;3.03;;;24.30;67.40;;;;;;5073206;28;20032;-59
2021/01/21 08:43:08;;;;;;;22.42;3.38;;;24.20;66.80;;;;;;5071787;28;20032;-57
2021/01/21 08:45:35;;;;;;;17.20;3.80;;;24.20;67.00;;;;;;5072605;28;20024;-59
2021/01/21 08:48:03;;;;;;;17.48;2.97;;;24.00;67.30;;;;;;5072991;28;20060;-61
2021/01/21 08:50:39;;;;;;;16.98;4.32;;;24.20;68.30;;;;;;5073516;28;20491;-58
2021/01/21 08:53:11;;;;;;;28.25;3.97;;;24.20;68.60;;;;;;5074401;28;20059;-60
2021/01/21 08:55:43;;;;;;;12.75;3.05;;;24.30;68.70;;;;;;5074566;28;20025;-59
2021/01/21 08:58:15;;;;;;;13.23;2.88;;;24.20;68.30;;;;;;5074601;28;20499;-60
2021/01/21 09:01:09;;;;;;;14.80;2.83;;;24.20;70.10;;;;;;5074676;28;20391;-61
2021/01/21 09:04:01;;;;;;;15.95;3.13;;;24.20;68.70;;;;;;5072909;28;20387;-60
2021/01/21 09:06:28;;;;;;;14.73;3.10;;;24.00;68.50;;;;;;5074006;28;20432;-61
2021/01/21 09:08:59;;;;;;;13.50;2.63;;;23.90;68.40;;;;;;5073576;28;20032;-61
2021/01/21 09:11:40;;;;;;;17.33;3.90;;;23.70;68.80;;;;;;5074090;28;20529;-60
2021/01/21 09:14:18;;;;;;;14.05;2.53;;;23.80;69.20;;;;;;5074045;28;20032;-60
2021/01/21 09:16:55;;;;;;;12.50;2.58;;;23.80;69.60;;;;;;5073542;28;20025;-60
2021/01/21 09:19:31;;;;;;;15.05;3.58;;;23.90;69.80;;;;;;5073954;28;20021;-59
2021/01/21 09:22:10;;;;;;;15.68;3.05;;;23.90;70.20;;;;;;5073708;28;20047;-61
2021/01/21 09:24:57;;;;;;;21.10;3.63;;;23.90;69.90;;;;;;5072580;28;20024;-56
2021/01/21 09:27:26;;;;;;;10.98;3.05;;;23.80;70.30;;;;;;5073778;28;20115;-60
2021/01/21 09:30:12;;;;;;;11.52;2.60;;;23.80;70.60;;;;;;5072338;28;20052;-59
2021/01/21 09:32:43;;;;;;;13.35;2.92;;;23.70;70.70;;;;;;5073846;28;20029;-60
2021/01/21 09:35:14;;;;;;;13.23;3.42;;;23.70;71.80;;;;;;5073448;28;20025;-60
2021/01/21 09:37:46;;;;;;;16.60;3.25;;;23.70;72.60;;;;;;5072974;28;20052;-58
2021/01/21 09:40:16;;;;;;;12.43;3.25;;;23.70;71.80;;;;;;5073642;28;20027;-58
2021/01/21 09:42:43;;;;;;;16.15;2.92;;;23.70;72.00;;;;;;5072267;28;20037;-58
2021/01/21 09:45:12;;;;;;;14.93;3.08;;;23.60;71.20;;;;;;5072013;28;20032;-62
2021/01/21 09:47:40;;;;;;;11.43;2.95;;;23.60;71.10;;;;;;5073574;28;20024;-64
2021/01/21 09:50:09;;;;;;;12.68;2.85;;;23.60;72.50;;;;;;5072486;28;20024;-63
2021/01/21 09:52:37;;;;;;;13.65;3.47;;;23.70;72.20;;;;;;5071736;28;20024;-63
2021/01/21 09:55:06;;;;;;;13.20;3.20;;;23.80;71.90;;;;;;5060285;28;20037;-53
2021/01/21 09:57:33;;;;;;;15.48;3.28;;;23.90;72.90;;;;;;5068655;28;20036;-50
2021/01/21 10:00:01;;;;;;;15.27;3.65;;;24.00;73.40;;;;;;5067438;28;20544;-58
2021/01/21 10:02:29;;;;;;;13.13;3.20;;;24.00;72.70;;;;;;5069778;28;20128;-49
2021/01/21 10:04:56;;;;;;;12.20;3.15;;;24.10;72.10;;;;;;5064353;28;20059;-57
2021/01/21 10:07:24;;;;;;;7.88;2.53;;;24.10;71.50;;;;;;5066967;28;20025;-55
2021/01/21 10:09:52;;;;;;;14.63;3.30;;;24.20;71.60;;;;;;5069909;28;20021;-68
2021/01/21 10:12:19;;;;;;;15.50;3.30;;;24.20;71.30;;;;;;5066606;28;20028;-60
2021/01/21 10:14:46;;;;;;;15.18;3.50;;;24.20;71.40;;;;;;5063721;28;20016;-54
2021/01/21 10:17:14;;;;;;;15.18;3.55;;;24.30;71.50;;;;;;5069423;28;20546;-51
2021/01/21 10:19:41;;;;;;;19.13;3.22;;;24.30;71.30;;;;;;5067162;28;20029;-54
2021/01/21 10:22:10;;;;;;;14.70;3.55;;;24.30;71.60;;;;;;5066257;28;20045;-49
2021/01/21 10:24:39;;;;;;;11.85;3.47;;;24.30;71.40;;;;;;5068296;28;20368;-52
2021/01/21 10:27:06;;;;;;;9.15;2.67;;;24.30;71.40;;;;;;5064395;28;20032;-60
2021/01/21 10:29:33;;;;;;;12.27;2.95;;;24.30;71.30;;;;;;5066348;28;20059;-62
2021/01/21 10:32:01;;;;;;;9.45;2.63;;;24.30;71.10;;;;;;5069434;28;20032;-53
2021/01/21 10:34:28;;;;;;;10.35;2.80;;;24.30;71.20;;;;;;5069106;28;20024;-62
2021/01/21 10:36:56;;;;;;;11.45;3.47;;;24.40;71.20;;;;;;5064750;28;20110;-58
2021/01/21 10:39:24;;;;;;;7.93;2.63;;;24.40;71.10;;;;;;5069805;28;20099;-57
2021/01/21 10:41:51;;;;;;;11.90;3.47;;;24.40;71.10;;;;;;5068677;28;20112;-52
2021/01/21 10:44:19;;;;;;;12.27;2.97;;;24.40;70.80;;;;;;5069336;28;20092;-57
2021/01/21 10:46:46;;;;;;;10.88;2.88;;;24.40;70.90;;;;;;5064965;28;20039;-58
2021/01/21 10:49:14;;;;;;;10.40;2.45;;;24.40;70.80;;;;;;5068652;28;20085;-59
2021/01/21 10:51:41;;;;;;;9.57;2.78;;;24.40;71.10;;;;;;5069863;28;20023;-60
2021/01/21 10:54:09;;;;;;;8.57;2.25;;;24.40;71.20;;;;;;5068175;28;20082;-56
2021/01/21 10:56:36;;;;;;;14.20;2.70;;;24.40;71.00;;;;;;5064974;28;20028;-56
2021/01/21 10:59:05;;;;;;;10.40;2.70;;;24.40;70.80;;;;;;5069067;28;20044;-58
2021/01/21 11:01:35;;;;;;;9.32;2.85;;;24.40;70.70;;;;;;5069156;28;20023;-56
2021/01/21 11:04:04;;;;;;;10.93;3.60;;;24.40;70.70;;;;;;5067986;28;20032;-60
2021/01/21 11:06:31;;;;;;;12.63;3.38;;;24.30;70.80;;;;;;5065250;28;20032;-57
2021/01/21 11:08:59;;;;;;;15.75;3.38;;;24.30;71.10;;;;;;5068639;28;20082;-56
2021/01/21 11:11:26;;;;;;;8.65;2.67;;;24.20;71.10;;;;;;5068211;28;20024;-55
2021/01/21 11:13:54;;;;;;;8.57;3.35;;;24.20;71.20;;;;;;5068730;28;20105;-57
2021/01/21 11:16:21;;;;;;;12.00;3.05;;;24.30;71.20;;;;;;5064552;28;20016;-57
2021/01/21 11:18:50;;;;;;;7.47;2.35;;;24.20;71.20;;;;;;5068087;28;20024;-55
2021/01/21 11:21:18;;;;;;;10.38;3.45;;;24.30;71.30;;;;;;5068761;28;20052;-53
2021/01/21 11:23:45;;;;;;;9.55;2.75;;;24.30;71.30;;;;;;5069009;28;20060;-56
2021/01/21 11:26:13;;;;;;;9.02;2.45;;;24.20;71.30;;;;;;5064634;28;20024;-53
2021/01/21 11:28:40;;;;;;;11.38;2.78;;;24.20;71.20;;;;;;5068938;28;20792;-59
2021/01/21 11:31:10;;;;;;;9.35;2.60;;;24.20;71.30;;;;;;5068394;28;20033;-58
2021/01/21 11:33:38;;;;;;;9.82;2.65;;;24.20;71.30;;;;;;5068644;28;20375;-56
2021/01/21 11:36:06;;;;;;;6.22;2.17;;;24.20;71.40;;;;;;5064924;28;20483;-58
2021/01/21 11:38:33;;;;;;;10.10;2.72;;;24.20;71.40;;;;;;5068642;28;20108;-55
2021/01/21 11:41:00;;;;;;;11.45;2.75;;;24.10;71.30;;;;;;5068744;28;20426;-55
2021/01/21 11:43:28;;;;;;;8.93;2.28;;;24.10;71.50;;;;;;5066373;28;20029;-51
2021/01/21 11:45:55;;;;;;;10.30;2.42;;;24.10;71.50;;;;;;5064131;28;20063;-57
2021/01/21 11:48:23;;;;;;;12.75;2.63;;;24.10;71.60;;;;;;5068912;28;20024;-57
2021/01/21 11:50:51;;;;;;;11.13;2.80;;;24.10;71.60;;;;;;5068572;28;20107;-52
2021/01/21 11:53:18;;;;;;;4.90;2.05;;;24.10;71.70;;;;;;5067435;28;20487;-54
2021/01/21 11:55:46;;;;;;;7.65;2.50;;;24.10;71.70;;;;;;5064623;28;20059;-55
2021/01/21 11:58:13;;;;;;;8.48;2.72;;;24.10;71.70;;;;;;5068765;28;20074;-53
2021/01/21 12:00:40;;;;;;;11.00;2.25;;;24.10;71.70;;;;;;5072185;28;20086;-59
2021/01/21 12:03:08;;;;;;;11.07;2.85;;;24.10;71.80;;;;;;5067071;28;20032;-54
2021/01/21 12:05:35;;;;;;;8.23;1.90;;;24.10;71.70;;;;;;5072237;28;20020;-57
2021/01/21 12:08:02;;;;;;;10.57;2.75;;;24.10;71.80;;;;;;5070697;28;20032;-54
2021/01/21 12:10:30;;;;;;;8.82;2.83;;;24.10;71.80;;;;;;5072277;28;20012;-60
2021/01/21 12:12:57;;;;;;;9.00;2.33;;;24.10;71.80;;;;;;5072134;28;20108;-55
2021/01/21 12:15:24;;;;;;;8.55;2.33;;;24.10;71.80;;;;;;5071625;28;20024;-57
2021/01/21 12:17:52;;;;;;;14.73;2.63;;;24.10;71.70;;;;;;5068128;28;20059;-54
2021/01/21 12:20:20;;;;;;;11.80;3.38;;;24.10;71.70;;;;;;5070918;28;20016;-54
2021/01/21 12:22:48;;;;;;;9.45;2.70;;;24.10;71.70;;;;;;5072019;28;20036;-55
2021/01/21 12:25:15;;;;;;;11.18;3.53;;;24.10;71.80;;;;;;5070875;28;20033;-56
2021/01/21 12:27:43;;;;;;;10.35;2.80;;;24.10;71.90;;;;;;5068725;28;20036;-57
2021/01/21 12:30:11;;;;;;;16.40;2.60;;;24.10;72.30;;;;;;5071953;28;20020;-54
2021/01/21 12:32:38;;;;;;;18.48;2.90;;;24.20;72.20;;;;;;5071191;28;20052;-54
2021/01/21 12:35:07;;;;;;;21.27;2.90;;;24.10;72.20;;;;;;5071391;28;20352;-55
2021/01/21 12:37:35;;;;;;;11.93;2.72;;;24.10;72.30;;;;;;5067756;28;20028;-61
2021/01/21 12:40:03;;;;;;;16.35;3.60;;;24.10;72.20;;;;;;5071814;28;20466;-58
2021/01/21 12:42:31;;;;;;;12.80;3.38;;;24.10;72.50;;;;;;5071654;28;20042;-53
2021/01/21 12:44:58;;;;;;;11.25;2.80;;;24.10;72.70;;;;;;5074580;28;20072;-57
2021/01/21 12:47:26;;;;;;;8.48;2.55;;;24.10;72.50;;;;;;5074515;28;20478;-52
2021/01/21 12:49:53;;;;;;;10.77;2.90;;;24.10;72.50;;;;;;5074523;28;20028;-52
2021/01/21 12:52:20;;;;;;;11.18;3.40;;;24.10;72.50;;;;;;5074649;28;20024;-56